createdAt,value
2019-05-14T00:02:12.174Z,-0.50
2019-05-14T00:04:42.274Z,-0.50
2019-05-14T00:07:11.571Z,-0.50
2019-05-14T00:09:41.427Z,-0.60
2019-05-14T00:12:11.335Z,-0.70
2019-05-14T00:14:43.383Z,-0.60
2019-05-14T00:17:11.260Z,-0.50
2019-05-14T00:19:41.604Z,-0.50
2019-05-14T00:22:11.550Z,-0.50
2019-05-14T00:24:41.614Z,-0.40
2019-05-14T00:27:11.436Z,-0.40
2019-05-14T00:29:41.672Z,-0.50
2019-05-14T00:32:11.148Z,-0.60
2019-05-14T00:34:42.206Z,-0.70
2019-05-14T00:37:11.558Z,-0.80
2019-05-14T00:39:41.589Z,-0.90
2019-05-14T00:42:12.545Z,-0.70
2019-05-14T00:44:53.598Z,-0.80
2019-05-14T00:47:11.184Z,-0.90
2019-05-14T00:49:42.271Z,-1.00
2019-05-14T00:52:11.742Z,-1.00
2019-05-14T00:54:41.677Z,-1.00
2019-05-14T00:57:11.870Z,-1.10
2019-05-14T00:59:41.657Z,-1.10
2019-05-14T01:02:11.609Z,-1.20
2019-05-14T01:04:42.507Z,-1.30
2019-05-14T01:07:11.938Z,-1.30
2019-05-14T01:09:42.068Z,-1.20
2019-05-14T01:12:12.235Z,-1.20
2019-05-14T01:14:42.398Z,-1.20
2019-05-14T01:17:11.359Z,-1.30
2019-05-14T01:19:42.077Z,-1.20
2019-05-14T01:22:12.214Z,-1.20
2019-05-14T01:24:41.680Z,-1.00
2019-05-14T01:27:12.472Z,-1.00
2019-05-14T01:29:42.518Z,-1.10
2019-05-14T01:32:11.642Z,-1.10
2019-05-14T01:34:41.937Z,-1.10
2019-05-14T01:37:11.733Z,-1.10
2019-05-14T01:39:41.902Z,-1.20
2019-05-14T01:42:12.545Z,-1.10
2019-05-14T01:44:41.399Z,-1.00
2019-05-14T01:47:12.407Z,-0.90
2019-05-14T01:49:42.505Z,-0.90
2019-05-14T01:52:11.314Z,-0.80
2019-05-14T01:54:42.412Z,-0.70
2019-05-14T01:57:11.561Z,-0.60
2019-05-14T01:59:42.563Z,-0.50
2019-05-14T02:02:11.643Z,-0.40
2019-05-14T02:04:42.403Z,-0.30
2019-05-14T02:07:11.527Z,-0.30
2019-05-14T02:09:41.989Z,-0.10
2019-05-14T02:12:11.779Z,0.10
2019-05-14T02:14:42.406Z,0.30
2019-05-14T02:17:12.392Z,0.40
2019-05-14T02:19:42.604Z,0.40
2019-05-14T02:22:11.386Z,0.50
2019-05-14T02:24:41.697Z,0.60
2019-05-14T02:27:12.325Z,0.80
2019-05-14T02:29:41.617Z,0.90
2019-05-14T02:32:10.759Z,1.00
2019-05-14T02:34:40.261Z,1.10
2019-05-14T02:37:09.601Z,1.30
2019-05-14T02:39:40.981Z,1.40
2019-05-14T02:42:09.541Z,1.50
2019-05-14T02:44:40.691Z,1.60
2019-05-14T02:47:09.786Z,1.60
2019-05-14T02:49:39.700Z,1.80
2019-05-14T02:52:10.001Z,1.80
2019-05-14T02:54:40.396Z,2.00
2019-05-14T02:57:10.470Z,2.10
2019-05-14T02:59:39.722Z,2.20
2019-05-14T03:02:10.011Z,2.30
2019-05-14T03:04:39.695Z,2.30
2019-05-14T03:07:10.696Z,2.30
2019-05-14T03:09:40.327Z,2.40
2019-05-14T03:12:10.081Z,2.50
2019-05-14T03:14:39.839Z,2.40
2019-05-14T03:17:10.565Z,2.50
2019-05-14T03:19:40.874Z,2.50
2019-05-14T03:22:10.122Z,2.50
2019-05-14T03:24:39.621Z,2.60
2019-05-14T03:27:09.629Z,2.60
2019-05-14T03:29:39.930Z,2.60
2019-05-14T03:32:12.991Z,2.50
2019-05-14T03:34:42.888Z,2.60
2019-05-14T03:37:13.137Z,2.60
2019-05-14T03:39:39.850Z,2.60
2019-05-14T03:42:09.446Z,2.60
2019-05-14T03:44:39.877Z,2.60
2019-05-14T03:47:10.420Z,2.60
2019-05-14T03:49:39.828Z,2.60
2019-05-14T03:52:09.648Z,2.60
2019-05-14T03:54:40.724Z,2.70
2019-05-14T03:57:09.597Z,2.70
2019-05-14T03:59:40.161Z,2.70
2019-05-14T04:02:10.091Z,2.70
2019-05-14T04:04:39.481Z,2.70
2019-05-14T04:07:10.699Z,2.70
2019-05-14T04:09:40.594Z,2.70
2019-05-14T04:12:10.352Z,2.70
2019-05-14T04:14:41.217Z,2.80
2019-05-14T04:17:15.459Z,2.80
2019-05-14T04:19:43.752Z,2.90
2019-05-14T04:22:13.653Z,2.80
2019-05-14T04:24:42.807Z,2.90
2019-05-14T04:27:13.932Z,3.00
2019-05-14T04:29:42.639Z,3.00
2019-05-14T04:32:11.465Z,3.10
2019-05-14T04:34:40.654Z,3.10
2019-05-14T04:37:10.181Z,3.20
2019-05-14T04:39:39.537Z,3.10
2019-05-14T04:42:09.592Z,3.20
2019-05-14T04:44:40.307Z,3.30
2019-05-14T04:47:22.732Z,3.30
2019-05-14T04:49:39.962Z,3.20
2019-05-14T04:52:10.073Z,3.30
2019-05-14T04:54:39.537Z,3.20
2019-05-14T04:57:10.246Z,3.30
2019-05-14T04:59:39.638Z,3.30
2019-05-14T05:02:09.728Z,3.40
2019-05-14T05:04:40.996Z,3.40
2019-05-14T05:07:09.923Z,3.40
2019-05-14T05:09:39.730Z,3.40
2019-05-14T05:12:09.238Z,3.60
2019-05-14T05:14:38.897Z,3.60
2019-05-14T05:17:09.208Z,3.60
2019-05-14T05:19:39.851Z,3.70
2019-05-14T05:22:08.182Z,4.00
2019-05-14T05:24:38.086Z,4.10
2019-05-14T05:27:09.102Z,4.00
2019-05-14T05:29:39.009Z,3.80
2019-05-14T05:32:08.625Z,3.80
2019-05-14T05:34:38.773Z,3.80
2019-05-14T05:37:08.594Z,3.80
2019-05-14T05:39:38.619Z,3.80
2019-05-14T05:42:09.257Z,3.80
2019-05-14T05:44:39.343Z,4.00
2019-05-14T05:47:09.262Z,4.10
2019-05-14T05:49:38.276Z,4.20
2019-05-14T05:52:08.499Z,4.30
2019-05-14T05:54:38.380Z,4.20
2019-05-14T05:57:09.157Z,4.20
2019-05-14T05:59:39.365Z,4.10
2019-05-14T06:02:09.323Z,4.20
2019-05-14T06:04:39.294Z,4.30
2019-05-14T06:07:08.871Z,4.30
2019-05-14T06:09:38.279Z,4.30
2019-05-14T06:12:08.735Z,4.30
2019-05-14T06:14:38.252Z,4.20
2019-05-14T06:17:08.502Z,4.30
2019-05-14T06:19:38.251Z,4.20
2019-05-14T06:22:09.583Z,4.20
2019-05-14T06:24:38.938Z,4.30
2019-05-14T06:27:09.445Z,4.30
2019-05-14T06:29:38.267Z,4.40
2019-05-14T06:32:09.248Z,4.50
2019-05-14T06:34:38.447Z,4.60
2019-05-14T06:37:08.345Z,4.70
2019-05-14T06:39:39.135Z,5.00
2019-05-14T06:42:08.802Z,5.10
2019-05-14T06:44:38.581Z,5.20
2019-05-14T06:47:09.321Z,5.30
2019-05-14T06:49:38.509Z,5.30
2019-05-14T06:52:08.810Z,5.50
2019-05-14T06:54:38.674Z,5.60
2019-05-14T06:57:08.869Z,5.70
2019-05-14T06:59:38.072Z,5.80
2019-05-14T07:02:08.718Z,5.80
2019-05-14T07:04:39.219Z,6.00
2019-05-14T07:07:08.500Z,6.20
2019-05-14T07:09:38.405Z,6.20
2019-05-14T07:12:09.105Z,6.20
2019-05-14T07:14:38.894Z,6.40
2019-05-14T07:17:09.089Z,6.50
2019-05-14T07:19:38.473Z,6.60
2019-05-14T07:22:08.961Z,6.70
2019-05-14T07:24:40.460Z,6.80
2019-05-14T07:27:09.505Z,6.70
2019-05-14T07:29:38.710Z,6.80
2019-05-14T07:32:08.969Z,6.90
2019-05-14T07:34:38.823Z,6.90
2019-05-14T07:37:09.289Z,6.80
2019-05-14T07:39:38.677Z,6.70
2019-05-14T07:42:09.837Z,6.80
2019-05-14T07:44:39.120Z,6.90
2019-05-14T07:47:08.363Z,7.10
2019-05-14T07:49:38.528Z,7.20
2019-05-14T07:52:09.249Z,7.40
2019-05-14T07:54:38.935Z,7.30
2019-05-14T07:57:08.726Z,7.30
2019-05-14T07:59:38.155Z,7.40
2019-05-14T08:02:09.124Z,7.60
2019-05-14T08:04:38.114Z,7.90
2019-05-14T08:07:09.040Z,8.30
2019-05-14T08:09:38.963Z,8.80
2019-05-14T08:12:09.265Z,9.30
2019-05-14T08:14:53.191Z,9.30
2019-05-14T08:17:08.740Z,9.00
2019-05-14T08:19:38.627Z,9.00
2019-05-14T08:22:09.554Z,9.10
2019-05-14T08:24:38.601Z,8.90
2019-05-14T08:27:08.556Z,8.60
2019-05-14T08:29:39.943Z,8.80
2019-05-14T08:32:08.783Z,9.10
2019-05-14T08:34:38.939Z,8.80
2019-05-14T08:37:08.279Z,9.10
2019-05-14T08:39:39.255Z,9.30
2019-05-14T08:42:08.589Z,9.50
2019-05-14T08:44:38.988Z,9.40
2019-05-14T08:47:09.578Z,10.20
2019-05-14T08:49:45.862Z,11.00
2019-05-14T08:52:08.788Z,11.50
2019-05-14T08:54:39.117Z,11.40
2019-05-14T08:57:09.791Z,10.80
2019-05-14T08:59:39.640Z,10.20
2019-05-14T09:02:10.758Z,9.80
2019-05-14T09:04:43.079Z,9.60
2019-05-14T09:07:09.561Z,9.90
2019-05-14T09:09:38.342Z,10.00
2019-05-14T09:12:12.162Z,9.80
2019-05-14T09:14:38.834Z,9.40
2019-05-14T09:17:09.672Z,9.10
2019-05-14T09:19:39.436Z,9.60
2019-05-14T09:22:09.631Z,10.10
2019-05-14T09:24:39.005Z,10.80
2019-05-14T09:27:08.456Z,11.00
2019-05-14T09:29:41.467Z,11.20
2019-05-14T09:32:09.641Z,10.90
2019-05-14T09:34:39.323Z,10.00
2019-05-14T09:37:08.657Z,10.00
2019-05-14T09:39:38.544Z,10.40
2019-05-14T09:42:08.225Z,10.90
2019-05-14T09:44:38.619Z,11.50
2019-05-14T09:47:08.474Z,11.70
2019-05-14T09:49:38.884Z,11.60
2019-05-14T09:52:09.017Z,11.60
2019-05-14T09:54:41.435Z,11.50
2019-05-14T09:57:08.409Z,11.70
2019-05-14T09:59:38.501Z,12.00
2019-05-14T10:02:09.183Z,11.90
2019-05-14T10:04:39.114Z,11.70
2019-05-14T10:07:08.706Z,12.00
2019-05-14T10:09:38.868Z,12.20
2019-05-14T10:12:08.958Z,11.90
2019-05-14T10:14:39.250Z,11.20
2019-05-14T10:17:07.773Z,10.50
2019-05-14T10:19:38.896Z,10.00
2019-05-14T10:22:08.319Z,10.10
2019-05-14T10:24:38.694Z,10.80
2019-05-14T10:27:09.081Z,11.40
2019-05-14T10:29:39.139Z,10.70
2019-05-14T10:32:08.688Z,10.60
2019-05-14T10:34:37.489Z,10.20
2019-05-14T10:37:08.393Z,9.90
2019-05-14T10:39:38.865Z,9.70
2019-05-14T10:42:08.322Z,9.60
2019-05-14T10:44:38.756Z,9.30
2019-05-14T10:47:08.993Z,9.30
2019-05-14T10:49:38.640Z,9.30
2019-05-14T10:52:08.288Z,9.50
2019-05-14T10:54:40.337Z,9.80
2019-05-14T10:57:09.682Z,10.10
2019-05-14T10:59:37.519Z,10.50
2019-05-14T11:02:11.074Z,10.90
2019-05-14T11:04:38.924Z,11.10
2019-05-14T11:25:09.199Z,12.00
2019-05-14T11:27:38.792Z,12.40
2019-05-14T11:30:09.049Z,12.80
2019-05-14T11:32:38.592Z,12.60
2019-05-14T11:35:12.805Z,12.60
2019-05-14T11:37:41.477Z,12.20
2019-05-14T11:40:09.347Z,11.30
2019-05-14T11:42:38.813Z,10.80
2019-05-14T11:45:08.995Z,10.40
2019-05-14T11:47:38.010Z,10.20
2019-05-14T11:50:09.895Z,10.00
2019-05-14T11:52:38.827Z,9.60
2019-05-14T11:55:09.047Z,9.50
2019-05-14T11:57:37.754Z,9.80
2019-05-14T12:00:08.657Z,10.20
2019-05-14T12:02:38.564Z,10.80
2019-05-14T12:05:09.119Z,10.60
2019-05-14T12:07:38.920Z,10.70
2019-05-14T12:10:09.041Z,11.20
2019-05-14T12:12:37.671Z,11.70
2019-05-14T12:15:09.010Z,11.60
2019-05-14T12:17:39.454Z,11.20
2019-05-14T12:20:09.316Z,10.80
2019-05-14T12:22:39.386Z,10.60
2019-05-14T12:25:08.357Z,10.60
2019-05-14T12:27:38.802Z,10.90
2019-05-14T12:30:09.606Z,10.80
2019-05-14T12:32:39.580Z,10.80
2019-05-14T12:35:08.701Z,11.10
2019-05-14T12:37:38.713Z,10.80
2019-05-14T12:40:08.937Z,10.50
2019-05-14T12:42:39.098Z,10.50
2019-05-14T12:45:11.334Z,11.30
2019-05-14T12:47:39.876Z,11.90
2019-05-14T12:50:09.493Z,12.20
2019-05-14T12:52:38.928Z,11.60
2019-05-14T12:55:09.122Z,11.50
2019-05-14T12:57:39.340Z,12.00
2019-05-14T13:00:09.588Z,12.70
2019-05-14T13:02:38.132Z,13.20
2019-05-14T13:05:08.940Z,13.10
2019-05-14T13:07:41.446Z,13.10
2019-05-14T13:10:09.145Z,13.00
2019-05-14T13:12:39.074Z,13.30
2019-05-14T13:15:08.762Z,14.00
2019-05-14T13:17:38.960Z,13.90
2019-05-14T13:20:13.625Z,13.20
2019-05-14T13:22:45.942Z,12.40
2019-05-14T13:25:11.147Z,11.50
2019-05-14T13:27:39.901Z,11.50
2019-05-14T13:30:09.303Z,12.40
2019-05-14T13:32:39.363Z,13.40
2019-05-14T13:35:13.269Z,13.30
2019-05-14T13:37:40.007Z,13.10
2019-05-14T13:40:09.370Z,13.30
2019-05-14T13:42:39.950Z,12.20
2019-05-14T13:45:10.237Z,11.80
2019-05-14T13:47:39.039Z,12.00
2019-05-14T13:50:08.707Z,13.20
2019-05-14T13:52:40.485Z,12.90
2019-05-14T13:55:09.636Z,12.30
2019-05-14T13:57:39.808Z,11.90
2019-05-14T14:00:11.773Z,11.50
2019-05-14T14:02:39.930Z,11.40
2019-05-14T14:05:08.852Z,11.10
2019-05-14T14:07:39.447Z,11.60
2019-05-14T14:10:09.126Z,11.90
2019-05-14T14:12:40.383Z,11.70
2019-05-14T14:15:09.912Z,11.50
2019-05-14T14:17:39.281Z,11.40
2019-05-14T14:20:09.640Z,11.30
2019-05-14T14:22:39.989Z,11.90
2019-05-14T14:25:09.323Z,11.50
2019-05-14T14:27:40.823Z,11.20
2019-05-14T14:30:09.651Z,10.70
2019-05-14T14:32:40.671Z,10.60
2019-05-14T14:35:08.916Z,11.00
2019-05-14T14:37:39.614Z,11.40
2019-05-14T14:40:10.636Z,12.60
2019-05-14T14:42:40.018Z,13.40
2019-05-14T14:45:09.701Z,13.10
2019-05-14T14:47:39.357Z,12.40
2019-05-14T14:50:09.826Z,12.50
2019-05-14T14:52:38.381Z,12.70
2019-05-14T14:55:07.517Z,12.50
2019-05-14T14:57:36.108Z,12.60
2019-05-14T15:00:09.559Z,13.20
2019-05-14T15:02:41.111Z,13.00
2019-05-14T15:05:13.806Z,12.00
2019-05-14T15:07:40.567Z,11.40
2019-05-14T15:10:10.261Z,11.60
2019-05-14T15:12:39.865Z,12.60
2019-05-14T15:15:09.141Z,13.30
2019-05-14T15:17:39.223Z,13.50
2019-05-14T15:20:10.283Z,14.80
2019-05-14T15:22:38.562Z,15.40
2019-05-14T15:25:09.164Z,14.50
2019-05-14T15:27:38.532Z,14.00
2019-05-14T15:30:11.156Z,13.20
2019-05-14T15:32:39.785Z,12.90
2019-05-14T15:35:11.211Z,12.60
2019-05-14T15:37:42.826Z,13.20
2019-05-14T15:40:10.677Z,14.20
2019-05-14T15:42:39.623Z,15.40
2019-05-14T15:45:09.357Z,16.10
2019-05-14T15:47:38.999Z,16.80
2019-05-14T15:50:09.393Z,17.10
2019-05-14T15:52:39.250Z,17.00
2019-05-14T15:55:09.487Z,15.50
2019-05-14T15:57:41.053Z,14.20
2019-05-14T16:00:10.239Z,12.70
2019-05-14T16:02:39.922Z,11.90
2019-05-14T16:05:10.075Z,11.10
2019-05-14T16:07:39.406Z,10.90
2019-05-14T16:10:08.716Z,10.90
2019-05-14T16:12:39.873Z,10.80
2019-05-14T16:15:09.117Z,10.60
2019-05-14T16:17:48.330Z,10.60
2019-05-14T16:20:09.173Z,10.60
2019-05-14T16:22:39.876Z,10.60
2019-05-14T16:25:09.258Z,10.40
2019-05-14T16:27:39.562Z,10.50
2019-05-14T16:30:09.982Z,11.10
2019-05-14T16:32:39.746Z,11.70
2019-05-14T16:35:09.027Z,11.80
2019-05-14T16:37:39.140Z,11.70
2019-05-14T16:40:08.232Z,11.80
2019-05-14T16:42:39.246Z,12.60
2019-05-14T16:45:08.687Z,13.40
2019-05-14T16:47:39.780Z,13.40
2019-05-14T16:50:09.169Z,13.70
2019-05-14T16:52:41.746Z,13.00
2019-05-14T16:55:22.663Z,12.10
2019-05-14T16:57:39.175Z,11.40
2019-05-14T17:00:09.748Z,10.90
2019-05-14T17:02:38.413Z,10.60
2019-05-14T17:05:09.231Z,10.20
2019-05-14T17:07:38.549Z,10.00
2019-05-14T17:10:08.528Z,9.90
2019-05-14T17:12:49.741Z,10.70
2019-05-14T17:15:09.522Z,11.50
2019-05-14T17:17:38.507Z,12.40
2019-05-14T17:20:08.587Z,13.20
2019-05-14T17:22:39.622Z,14.30
2019-05-14T17:25:09.525Z,15.10
2019-05-14T17:27:39.384Z,14.70
2019-05-14T17:30:09.358Z,14.50
2019-05-14T17:32:39.159Z,14.40
2019-05-14T17:35:08.434Z,13.90
2019-05-14T17:37:39.502Z,13.50
2019-05-14T17:40:09.469Z,13.00
2019-05-14T17:42:39.545Z,12.80
2019-05-14T17:45:09.164Z,12.30
2019-05-14T17:47:39.292Z,12.10
2019-05-14T17:50:08.550Z,12.30
2019-05-14T17:52:42.987Z,12.40
2019-05-14T17:55:12.080Z,12.10
2019-05-14T17:57:45.814Z,12.00
2019-05-14T18:00:10.207Z,11.60
2019-05-14T18:02:38.645Z,11.30
2019-05-14T18:05:09.436Z,11.10
2019-05-14T18:07:38.460Z,10.80
2019-05-14T18:10:08.739Z,10.60
2019-05-14T18:12:39.556Z,10.40
2019-05-14T18:15:08.691Z,10.30
2019-05-14T18:17:39.218Z,10.20
2019-05-14T18:20:08.540Z,10.20
2019-05-14T18:22:42.253Z,10.10
2019-05-14T18:25:07.699Z,9.70
2019-05-14T18:27:39.033Z,9.40
2019-05-14T18:30:09.269Z,9.10
2019-05-14T18:32:37.156Z,9.00
2019-05-14T18:35:06.050Z,8.70
2019-05-14T18:37:34.588Z,8.50
2019-05-14T18:40:03.700Z,8.30
2019-05-14T18:42:32.234Z,8.20
2019-05-14T18:45:00.668Z,8.10
2019-05-14T18:47:29.265Z,7.90
2019-05-14T18:49:59.537Z,7.90
2019-05-14T18:52:29.701Z,7.90
2019-05-14T18:54:58.983Z,7.80
2019-05-14T18:57:28.668Z,7.70
2019-05-14T18:59:57.282Z,7.50
2019-05-14T19:02:29.101Z,7.60
2019-05-14T19:04:57.943Z,7.50
2019-05-14T19:07:28.679Z,7.30
2019-05-14T19:09:58.635Z,7.10
2019-05-14T19:12:28.916Z,7.00
2019-05-14T19:14:58.983Z,6.80
2019-05-14T19:17:28.309Z,6.70
2019-05-14T19:19:58.934Z,6.60
2019-05-14T19:22:28.879Z,6.50
2019-05-14T19:24:58.649Z,6.30
2019-05-14T19:27:28.565Z,6.10
2019-05-14T19:29:59.164Z,5.80
2019-05-14T19:32:28.295Z,5.60
2019-05-14T19:34:58.038Z,5.50
2019-05-14T19:37:28.933Z,5.50
2019-05-14T19:39:58.595Z,5.30
2019-05-14T19:42:28.768Z,5.10
2019-05-14T19:44:59.811Z,4.90
2019-05-14T19:47:28.227Z,4.60
2019-05-14T19:49:58.170Z,4.50
2019-05-14T19:52:28.242Z,4.40
2019-05-14T19:54:56.830Z,4.30
2019-05-14T19:57:25.290Z,4.10
2019-05-14T19:59:53.807Z,4.00
2019-05-14T20:02:22.267Z,3.80
2019-05-14T20:04:50.726Z,3.70
2019-05-14T20:07:19.176Z,3.60
2019-05-14T20:09:48.296Z,3.50
2019-05-14T20:12:18.262Z,3.40
2019-05-14T20:14:48.961Z,3.40
2019-05-14T20:17:19.212Z,3.20
2019-05-14T20:19:49.254Z,3.10
2019-05-14T20:22:19.039Z,3.00
2019-05-14T20:24:48.422Z,2.90
2019-05-14T20:27:17.238Z,2.80
2019-05-14T20:29:45.680Z,2.80
2019-05-14T20:32:14.135Z,2.80
2019-05-14T20:34:42.566Z,2.70
2019-05-14T20:37:11.026Z,2.70
2019-05-14T20:39:39.471Z,2.50
2019-05-14T20:42:09.170Z,2.40
2019-05-14T20:44:38.587Z,2.30
2019-05-14T20:47:09.168Z,2.20
2019-05-14T20:49:38.026Z,2.10
2019-05-14T20:52:08.572Z,2.00
2019-05-14T20:54:36.914Z,2.10
2019-05-14T20:57:19.674Z,2.10
2019-05-14T20:59:35.525Z,2.00
2019-05-14T21:02:03.969Z,2.10
2019-05-14T21:04:32.403Z,2.00
2019-05-14T21:07:00.868Z,1.90
2019-05-14T21:09:29.306Z,1.80
2019-05-14T21:11:57.764Z,1.80
2019-05-14T21:14:26.235Z,1.70
2019-05-14T21:16:54.668Z,1.60
2019-05-14T21:19:23.135Z,1.50
2019-05-14T21:21:51.570Z,1.40
2019-05-14T21:24:21.946Z,1.40
2019-05-14T21:26:50.208Z,1.40
2019-05-14T21:29:18.662Z,1.30
2019-05-14T21:31:47.103Z,1.30
2019-05-14T21:34:15.571Z,1.20
2019-05-14T21:36:45.381Z,1.30
2019-05-14T21:39:14.151Z,1.30
2019-05-14T21:41:42.729Z,1.40
2019-05-14T21:44:11.211Z,1.50
2019-05-14T21:46:40.062Z,1.40
2019-05-14T21:49:11.101Z,1.40
2019-05-14T21:51:39.288Z,1.20
2019-05-14T21:54:09.450Z,1.20
2019-05-14T21:56:38.884Z,1.10
2019-05-14T21:59:09.493Z,1.00
2019-05-14T22:01:39.409Z,0.90
2019-05-14T22:04:11.189Z,0.80
2019-05-14T22:06:41.151Z,0.70
2019-05-14T22:09:08.851Z,0.70
2019-05-14T22:11:39.336Z,0.70
2019-05-14T22:14:07.861Z,0.70
2019-05-14T22:16:38.118Z,0.60
2019-05-14T22:19:08.495Z,0.60
2019-05-14T22:21:38.718Z,0.70
2019-05-14T22:24:07.251Z,0.70
2019-05-14T22:26:35.688Z,0.60
2019-05-14T22:29:04.228Z,0.60
2019-05-14T22:31:32.742Z,0.50
2019-05-14T22:34:01.176Z,0.50
2019-05-14T22:36:29.659Z,0.40
2019-05-14T22:38:58.122Z,0.40
2019-05-14T22:41:28.920Z,0.40
2019-05-14T22:43:59.351Z,0.40
2019-05-14T22:46:26.915Z,0.50
2019-05-14T22:48:55.371Z,0.40
2019-05-14T22:51:23.819Z,0.40
2019-05-14T22:53:52.279Z,0.40
2019-05-14T22:56:20.713Z,0.20
2019-05-14T22:58:49.194Z,0.20
2019-05-14T23:01:18.442Z,0.20
2019-05-14T23:03:48.958Z,0.10
2019-05-14T23:06:18.739Z,0.20
2019-05-14T23:08:48.661Z,0.20
2019-05-14T23:11:19.515Z,0.20
2019-05-14T23:13:48.864Z,0.10
2019-05-14T23:16:32.723Z,0.10
2019-05-14T23:18:48.784Z,0.00
2019-05-14T23:21:17.376Z,-0.20
2019-05-14T23:23:45.847Z,-0.20
2019-05-14T23:26:14.298Z,-0.10
2019-05-14T23:28:45.965Z,-0.10
2019-05-14T23:31:12.926Z,-0.10
2019-05-14T23:33:41.828Z,-0.30
2019-05-14T23:36:10.811Z,-0.30
2019-05-14T23:38:39.432Z,-0.20
2019-05-14T23:41:08.640Z,-0.30
2019-05-14T23:43:39.137Z,-0.30
2019-05-14T23:46:09.305Z,-0.30
2019-05-14T23:48:39.129Z,-0.30
2019-05-14T23:51:08.202Z,-0.30
2019-05-14T23:53:39.221Z,-0.30
2019-05-14T23:56:08.674Z,-0.30
2019-05-14T23:58:37.374Z,-0.40
